EGQL

RAF Leuchars Airport

St. Andrews, United Kingdom
METAR EGQL 220250Z 26012KT CAVOK 07/05 Q1008 BLU
Observed Flight Rules
Sep-22 @ 02:50 UTC (35 minutes ago) Visual Flight Rules
Wind Visibility Clouds
260° at 12 knots 10,000+ meters
Temperatures Readings
Current 7°C / 45°F
Dewpoint 5°C / 41°F
Humidity 87%
Altimeter 29.76" Hg
Pressure 1008 hPa
Elevation 12
METAR EGQL 220250Z 26012KT CAVOK 07/05 Q1008 BLU
Observed Flight Rules
Sep-22 @ 02:50 UTC
(35 minutes ago)
VFR
Wind Visibility
260° at 12 knots 10,000+ meters
Clouds
Temperature Dewpoint
7°C / 45°F 5°C / 41°F
Humidity Altimeter Pressure
87% 29.76" Hg 1008 hPa